»·PEaware :: AAL979 KPHX-KSLC

AAL979 :: KPHX-KSLC

FLIGHT INFORMATION

Flight Status: Arrived
Operator:
American Airlines
More flights by this operator :: More flights under this callsign
Pilot: Colin A. (19898)
Aircraft: MCDONNELL-DOUGLAS MD-82
(MD82)
More flights by this aircraft type
Origin: KPHX Phoenix Sky Harbor Intl
United States
Destination: KSLC Salt Lake City Intl
United States
More flights between these airports :: More routes between these airports
Route: QUAKY1 GCN BCE DELTA5
File this flight plan on PilotEdge
Remarks: PBN / A1B2 DOF / 181109 REG / N882SB EET / KZLA0022 KZLC0039 OPR / AAL PER / C RMK / TCAS SIMBRIEF
Altitude:
(Current/Filed)
34,000ft
Speed:
(Current/Filed)
444kts
Departed: 09-Nov-18 06:44 AM
Arrived: 09-Nov-18 08:05 AM
Distance/Time
Traveled:
441nm/1:20
Distance/Time
To Go:
Arrived

Flight Plot

Page will automatically refresh every two minutes.

Flight plan parsing failed; only flown route is shown


Map Options




Map Legend


Flown Route
Filed Route
Departure Airport
Arrival Airport
Navaid (VOR, NDB)
Fix

Horizontal Profiles

Position Reports

Time Latitude Longitude Heading Altitude Ground
Speed
09-Nov-18 06:32 33.434501 -112.007952 270 1144ft 0kts
09-Nov-18 06:33 33.434501 -112.007952 270 1144ft 0kts
09-Nov-18 06:34 33.434501 -112.007952 270 1144ft 0kts
09-Nov-18 06:35 33.434501 -112.007952 270 1144ft 0kts
09-Nov-18 06:36 33.434501 -112.007952 270 1144ft 0kts
09-Nov-18 06:37 33.434501 -112.007952 270 1144ft 0kts
09-Nov-18 06:38 33.434501 -112.007952 270 1144ft 0kts
09-Nov-18 06:39 33.434502 -112.007922 272 1144ft 1kts
09-Nov-18 06:40 33.434155 -112.007768 336 1144ft 2kts
09-Nov-18 06:41 33.433533 -112.007586 358 1144ft 2kts
09-Nov-18 06:42 33.433344 -112.007584 359 1144ft 0kts
09-Nov-18 06:43 33.433371 -112.007577 8 1144ft 1kts
09-Nov-18 06:44 33.432826 -112.004237 89 1144ft 38kts
09-Nov-18 06:45 33.432484 -111.993661 185 1144ft 14kts
09-Nov-18 06:46 33.432026 -111.993657 173 1144ft 0kts
09-Nov-18 06:47 33.431020 -112.005980 270 1144ft 140kts
09-Nov-18 06:48 33.431432 -112.062082 271 2647ft 239kts
09-Nov-18 06:49 33.433574 -112.142223 272 4741ft 245kts
09-Nov-18 06:50 33.472287 -112.198910 353 7418ft 252kts
09-Nov-18 06:51 33.543879 -112.196184 8 9710ft 267kts
09-Nov-18 06:52 33.622264 -112.169399 26 11053ft 318kts
09-Nov-18 06:53 33.685170 -112.092220 46 14776ft 335kts
09-Nov-18 06:54 33.748507 -112.004525 36 17996ft 348kts
09-Nov-18 06:55 33.838385 -111.973388 2 20822ft 342kts
09-Nov-18 06:56 33.934635 -111.960601 3 23223ft 353kts
09-Nov-18 06:57 34.033456 -111.943703 4 24792ft 370kts
09-Nov-18 06:58 34.137421 -111.932483 353 26394ft 371kts
09-Nov-18 06:59 34.240927 -111.946823 351 27779ft 375kts
09-Nov-18 07:00 34.345422 -111.960103 352 28970ft 381kts
09-Nov-18 07:01 34.451810 -111.971978 352 30083ft 384kts
09-Nov-18 07:02 34.558558 -111.983776 352 31134ft 386kts
09-Nov-18 07:03 34.666111 -111.995379 351 32085ft 388kts
09-Nov-18 07:04 34.773756 -112.007772 351 33109ft 387kts
09-Nov-18 07:05 34.880748 -112.019595 351 33983ft 387kts
09-Nov-18 07:06 34.989557 -112.031480 351 34136ft 392kts
09-Nov-18 07:07 35.097912 -112.043558 351 34142ft 392kts
09-Nov-18 07:08 35.206388 -112.055899 351 34149ft 390kts
09-Nov-18 07:09 35.314426 -112.068228 351 34148ft 389kts
09-Nov-18 07:10 35.421863 -112.080217 352 34149ft 390kts
09-Nov-18 07:11 35.529885 -112.091118 352 34150ft 389kts
09-Nov-18 07:12 35.637798 -112.103472 351 34151ft 389kts
09-Nov-18 07:13 35.745663 -112.116038 351 34154ft 388kts
09-Nov-18 07:14 35.853185 -112.129601 351 34156ft 389kts
09-Nov-18 07:15 35.960717 -112.143288 351 34158ft 389kts
09-Nov-18 07:16 36.086823 -112.154661 353 34156ft 389kts
09-Nov-18 07:17 36.176789 -112.161682 353 34153ft 389kts
09-Nov-18 07:18 36.284810 -112.171133 352 34146ft 387kts
09-Nov-18 07:19 36.392403 -112.181367 353 34138ft 388kts
09-Nov-18 07:20 36.499910 -112.190400 353 34131ft 386kts
09-Nov-18 07:21 36.606969 -112.199678 353 34122ft 386kts
09-Nov-18 07:22 36.713691 -112.209414 353 34115ft 384kts
09-Nov-18 07:23 36.820401 -112.219432 353 34112ft 383kts
09-Nov-18 07:24 36.926491 -112.228678 353 34109ft 382kts
09-Nov-18 07:25 37.032578 -112.237803 353 34108ft 380kts
09-Nov-18 07:26 37.138340 -112.247496 353 34112ft 381kts
09-Nov-18 07:27 37.243734 -112.257502 353 34116ft 380kts
09-Nov-18 07:28 37.349222 -112.267225 353 34123ft 380kts
09-Nov-18 07:29 37.454484 -112.276938 353 34131ft 380kts
09-Nov-18 07:30 37.560055 -112.286646 353 34139ft 379kts
09-Nov-18 07:31 37.665443 -112.296279 353 34143ft 380kts
09-Nov-18 07:32 37.770685 -112.307942 352 34142ft 379kts
09-Nov-18 07:33 37.875550 -112.321194 352 34134ft 379kts
09-Nov-18 07:34 37.980570 -112.333750 352 34122ft 379kts
09-Nov-18 07:35 38.085533 -112.347095 352 34108ft 379kts
09-Nov-18 07:36 38.190544 -112.360058 352 34095ft 377kts
09-Nov-18 07:37 38.295103 -112.372723 352 34083ft 378kts
09-Nov-18 07:38 38.399438 -112.385744 352 34075ft 377kts
09-Nov-18 07:39 38.503678 -112.399337 352 34060ft 375kts
09-Nov-18 07:40 38.607880 -112.412425 352 34055ft 375kts
09-Nov-18 07:41 38.711370 -112.425013 352 34051ft 374kts
09-Nov-18 07:42 38.814921 -112.437588 352 34047ft 373kts
09-Nov-18 07:43 38.918397 -112.450158 351 34043ft 372kts
09-Nov-18 07:44 39.021779 -112.459804 353 34040ft 372kts
09-Nov-18 07:45 39.124836 -112.470997 351 34033ft 371kts
09-Nov-18 07:46 39.227646 -112.485680 350 34031ft 371kts
09-Nov-18 07:47 39.330296 -112.493267 3 34030ft 376kts
09-Nov-18 07:48 39.433002 -112.459685 9 34028ft 382kts
09-Nov-18 07:49 39.534834 -112.422387 8 32280ft 378kts
09-Nov-18 07:50 39.636861 -112.390105 5 29932ft 372kts
09-Nov-18 07:51 39.737315 -112.358660 9 27323ft 376kts
09-Nov-18 07:52 39.838995 -112.321568 11 25154ft 383kts
09-Nov-18 07:53 39.997058 -112.270085 10 21629ft 376kts
09-Nov-18 07:54 40.345822 -112.154187 12 13763ft 322kts
09-Nov-18 07:55 40.437180 -112.123601 12 13246ft 339kts
09-Nov-18 07:56 40.528525 -112.092884 13 12344ft 336kts
09-Nov-18 07:57 40.620279 -112.074389 0 11224ft 332kts
09-Nov-18 07:58 40.720181 -112.084507 351 11010ft 332kts
09-Nov-18 07:59 41.164915 -112.141353 353 10721ft 332kts
09-Nov-18 08:00 41.239231 -112.096875 74 9056ft 282kts
09-Nov-18 08:01 41.213208 -112.024233 164 9067ft 218kts
09-Nov-18 08:02 41.151962 -112.022577 172 9019ft 220kts
09-Nov-18 08:03 41.053339 -112.006486 169 8945ft 217kts
09-Nov-18 08:04 40.998896 -111.998542 175 7946ft 147kts
09-Nov-18 08:05 40.912278 -111.989014 173 6269ft 136kts
09-Nov-18 08:06 40.874903 -111.984735 172 5591ft 130kts
09-Nov-18 08:07 40.822748 -111.978762 172 4577ft 123kts
09-Nov-18 08:08 40.786738 -111.974509 175 4236ft 25kts
09-Nov-18 08:09 40.786594 -111.976571 355 4236ft 40kts
09-Nov-18 08:10 40.789807 -111.982932 263 4236ft 33kts
09-Nov-18 08:11 40.789661 -111.988970 89 4236ft 4kts
09-Nov-18 08:12 40.789739 -111.988317 84 4236ft 0kts

Navigation Log

Ident Type
Flight plan parsing failed, navigation log unavailable